Time;durP1;ratioP1;P1;durP2;ratioP2;P2;SDS_P1;SDS_P2;PMS_P1;PMS_P2;Temp;Humidity;BMP_temperature;BMP_pressure;BME280_temperature;BME280_humidity;BME280_pressure;Samples;Min_cycle;Max_cycle;Signal;HPM_P1;HPM_P2
2022/04/17 00:01:54;;;;;;;1.20;0.30;;;16.60;89.60;;;;;;5081190;28;20063;-77
2022/04/17 00:04:23;;;;;;;0.90;0.30;;;16.50;89.60;;;;;;5074667;28;20486;-78
2022/04/17 00:06:51;;;;;;;1.25;0.30;;;16.50;89.50;;;;;;5063865;28;20063;-78
2022/04/17 00:09:20;;;;;;;1.50;0.30;;;16.50;89.50;;;;;;5080925;28;20056;-77
2022/04/17 00:11:48;;;;;;;1.17;0.30;;;16.50;88.90;;;;;;5079917;28;20438;-77
2022/04/17 00:14:16;;;;;;;1.67;0.30;;;16.50;89.20;;;;;;5079671;28;20867;-78
2022/04/17 00:16:46;;;;;;;3.78;0.20;;;16.40;88.50;;;;;;5083734;28;20095;-77
2022/04/17 00:19:14;;;;;;;5.20;0.50;;;16.40;88.30;;;;;;5083512;28;20048;-78
2022/04/17 00:21:42;;;;;;;1.08;0.25;;;16.40;88.20;;;;;;5078961;28;20103;-77
2022/04/17 00:24:12;;;;;;;0.95;0.28;;;16.40;88.40;;;;;;5084030;28;20089;-79
2022/04/17 00:26:40;;;;;;;2.15;0.30;;;16.40;88.50;;;;;;5068271;28;20591;-78
2022/04/17 00:29:08;;;;;;;0.88;0.30;;;16.30;88.60;;;;;;5066776;28;20044;-78
2022/04/17 00:31:36;;;;;;;1.60;0.47;;;16.30;88.70;;;;;;5080673;28;20094;-78
2022/04/17 00:34:06;;;;;;;1.02;0.30;;;16.20;88.40;;;;;;5085791;28;20055;-77
2022/04/17 00:36:34;;;;;;;1.80;0.28;;;16.20;88.60;;;;;;5084719;28;20039;-78
2022/04/17 00:39:02;;;;;;;2.05;0.30;;;16.20;88.50;;;;;;5080191;28;20050;-77
2022/04/17 00:41:31;;;;;;;4.35;0.47;;;16.20;87.90;;;;;;5081966;28;20044;-76
2022/04/17 00:43:59;;;;;;;1.52;0.63;;;16.10;88.00;;;;;;5085093;28;20525;-77
2022/04/17 00:46:28;;;;;;;0.43;0.17;;;16.10;88.00;;;;;;5080411;28;20143;-77
2022/04/17 00:48:56;;;;;;;1.92;0.22;;;16.10;88.10;;;;;;5080327;28;20113;-78
2022/04/17 00:51:25;;;;;;;0.93;0.30;;;16.10;88.20;;;;;;5084793;28;20081;-77
2022/04/17 00:54:04;;;;;;;2.15;0.30;;;16.00;88.40;;;;;;5066850;28;20049;-77
2022/04/17 00:56:32;;;;;;;1.13;0.20;;;16.00;88.60;;;;;;5083456;28;20052;-78
2022/04/17 00:59:03;;;;;;;1.50;0.40;;;16.00;88.60;;;;;;5066414;28;20048;-77
2022/04/17 01:01:34;;;;;;;2.75;0.40;;;15.90;88.80;;;;;;5072379;28;20054;-78
2022/04/17 01:04:03;;;;;;;1.02;0.40;;;15.90;89.10;;;;;;5082922;28;20162;-77
2022/04/17 01:06:33;;;;;;;2.92;0.40;;;16.00;89.00;;;;;;5082558;28;20717;-78
2022/04/17 01:09:02;;;;;;;1.52;0.40;;;16.10;89.30;;;;;;5085671;28;20071;-78
2022/04/17 01:11:30;;;;;;;2.15;0.40;;;16.10;89.20;;;;;;5064784;28;20045;-78
2022/04/17 01:13:59;;;;;;;1.30;0.45;;;15.90;89.30;;;;;;5077720;28;20681;-78
2022/04/17 01:16:28;;;;;;;2.47;0.43;;;15.90;89.40;;;;;;5083462;28;20137;-78
2022/04/17 01:19:02;;;;;;;0.82;0.20;;;15.90;89.50;;;;;;5084414;28;20461;-78
2022/04/17 01:21:33;;;;;;;1.50;0.30;;;15.90;89.60;;;;;;5081858;28;20090;-77
2022/04/17 01:26:57;;;;;;;1.60;0.20;;;15.80;89.90;;;;;;5078922;28;20067;-78
2022/04/17 01:29:29;;;;;;;4.30;0.50;;;15.90;90.10;;;;;;5081042;28;20041;-77
2022/04/17 01:31:57;;;;;;;3.10;0.38;;;15.90;90.00;;;;;;5084456;28;20518;-77
2022/04/17 01:34:25;;;;;;;1.13;0.40;;;15.90;89.90;;;;;;5082129;28;20075;-77
2022/04/17 01:36:56;;;;;;;2.30;0.45;;;15.80;90.30;;;;;;5073890;28;20055;-78
2022/04/17 01:39:25;;;;;;;3.50;0.57;;;15.70;90.50;;;;;;5083856;28;20052;-78
2022/04/17 01:41:54;;;;;;;2.08;0.40;;;15.50;90.70;;;;;;5084576;28;20436;-78
2022/04/17 01:44:25;;;;;;;0.60;0.40;;;15.50;90.90;;;;;;5084792;28;20064;-77
2022/04/17 01:46:53;;;;;;;0.80;0.32;;;15.50;90.80;;;;;;5080154;28;20101;-77
2022/04/17 01:49:21;;;;;;;0.63;0.30;;;15.50;90.70;;;;;;5099561;28;20047;-78
2022/04/17 01:51:54;;;;;;;1.38;0.30;;;15.50;90.60;;;;;;5077402;28;20079;-77
2022/04/17 01:54:25;;;;;;;0.32;0.20;;;15.40;90.70;;;;;;5081333;28;20091;-78
2022/04/17 01:56:54;;;;;;;2.40;0.85;;;15.50;90.90;;;;;;5065698;28;20055;-77
2022/04/17 01:59:23;;;;;;;3.35;0.50;;;15.50;90.80;;;;;;5075184;28;20044;-76
2022/04/17 02:01:52;;;;;;;2.00;0.40;;;15.40;90.70;;;;;;5083325;28;20055;-77
2022/04/17 02:04:20;;;;;;;2.08;0.40;;;15.30;90.90;;;;;;5078442;28;20042;-78
2022/04/17 02:06:48;;;;;;;3.10;0.50;;;15.20;91.30;;;;;;5082447;28;20113;-78
2022/04/17 02:09:17;;;;;;;1.50;0.70;;;15.20;91.40;;;;;;5070263;28;20437;-77
2022/04/17 02:11:47;;;;;;;1.10;0.43;;;15.20;91.30;;;;;;5075165;28;20520;-78
2022/04/17 02:14:15;;;;;;;1.38;0.40;;;15.10;91.20;;;;;;5066908;28;20143;-78
2022/04/17 02:16:44;;;;;;;1.88;0.50;;;15.10;91.30;;;;;;5077005;28;20402;-78
2022/04/17 02:19:12;;;;;;;1.83;0.30;;;15.10;91.60;;;;;;5076886;28;20569;-78
2022/04/17 02:21:40;;;;;;;0.90;0.40;;;15.10;91.50;;;;;;5073687;28;20051;-79
2022/04/17 02:24:08;;;;;;;1.08;0.30;;;15.10;91.60;;;;;;5084698;28;20044;-77
2022/04/17 02:26:36;;;;;;;1.15;0.40;;;15.00;91.70;;;;;;5084165;28;20036;-78
2022/04/17 02:29:06;;;;;;;1.67;0.52;;;15.10;91.90;;;;;;5080170;28;20130;-77
2022/04/17 02:31:34;;;;;;;1.33;0.40;;;15.00;91.90;;;;;;5077279;28;20405;-77
2022/04/17 02:34:02;;;;;;;1.27;0.50;;;14.90;91.90;;;;;;5069691;28;20040;-77
2022/04/17 02:36:30;;;;;;;1.38;0.43;;;14.90;91.90;;;;;;5092942;28;20059;-77
2022/04/17 02:38:58;;;;;;;3.67;0.57;;;14.80;91.80;;;;;;5082968;28;20056;-78
2022/04/17 02:41:26;;;;;;;1.50;0.43;;;14.80;91.70;;;;;;5077804;28;20043;-78
2022/04/17 02:43:54;;;;;;;1.33;0.55;;;14.80;91.50;;;;;;5081610;28;20044;-77
2022/04/17 02:49:12;;;;;;;1.80;0.50;;;14.70;90.80;;;;;;5082203;28;20596;-77
2022/04/17 02:51:40;;;;;;;1.48;0.40;;;14.70;90.50;;;;;;5061358;28;20041;-78
2022/04/17 02:54:08;;;;;;;2.08;0.50;;;14.70;90.20;;;;;;5083215;28;20067;-77
2022/04/17 02:56:42;;;;;;;1.88;0.70;;;14.60;89.50;;;;;;5079726;28;20044;-77
2022/04/17 02:59:10;;;;;;;1.25;0.50;;;14.60;89.00;;;;;;5072807;28;20653;-77
2022/04/17 03:07:12;;;;;;;0.63;0.30;;;14.60;87.70;;;;;;5079646;28;20824;-77
2022/04/17 03:09:41;;;;;;;1.08;0.40;;;14.50;87.50;;;;;;5079067;28;20068;-78
2022/04/17 03:12:09;;;;;;;1.48;0.70;;;14.40;87.60;;;;;;5080859;28;20055;-77
2022/04/17 03:14:37;;;;;;;4.10;0.80;;;14.40;87.60;;;;;;5079482;28;20040;-77
2022/04/17 03:17:07;;;;;;;2.35;0.60;;;14.40;87.40;;;;;;5093204;28;20438;-77
2022/04/17 03:19:35;;;;;;;1.60;0.55;;;14.40;87.50;;;;;;5083201;28;20036;-78
2022/04/17 03:22:04;;;;;;;2.00;0.82;;;14.30;87.20;;;;;;5079246;28;20040;-77
2022/04/17 03:24:32;;;;;;;1.40;1.00;;;14.30;87.30;;;;;;5077923;28;20098;-78
2022/04/17 03:27:00;;;;;;;4.28;0.57;;;14.20;87.50;;;;;;5078473;28;20112;-77
2022/04/17 03:29:29;;;;;;;2.35;0.50;;;14.20;87.60;;;;;;5077498;28;20039;-77
2022/04/17 03:31:57;;;;;;;2.47;0.82;;;14.10;87.90;;;;;;5083481;28;20051;-77
2022/04/17 03:34:26;;;;;;;3.83;0.77;;;14.00;88.50;;;;;;5077001;28;20072;-77
2022/04/17 03:36:57;;;;;;;2.08;0.60;;;13.90;88.70;;;;;;5076040;28;20512;-77
2022/04/17 03:39:26;;;;;;;2.95;0.55;;;13.90;89.10;;;;;;5081593;28;20044;-78
2022/04/17 03:41:54;;;;;;;1.60;0.50;;;14.00;89.60;;;;;;5082585;28;20036;-78
2022/04/17 03:44:22;;;;;;;3.13;0.68;;;14.00;89.90;;;;;;5084819;28;20052;-78
2022/04/17 03:46:51;;;;;;;3.13;1.10;;;13.90;90.30;;;;;;5083473;28;20039;-77
2022/04/17 03:49:19;;;;;;;4.47;0.60;;;13.80;90.50;;;;;;5079969;28;20071;-77
2022/04/17 03:51:49;;;;;;;2.60;0.65;;;13.80;90.90;;;;;;5073476;28;20039;-76
2022/04/17 03:54:18;;;;;;;1.63;0.60;;;13.70;91.30;;;;;;5078119;28;20044;-76
2022/04/17 03:56:47;;;;;;;3.17;0.85;;;13.70;91.80;;;;;;5079632;28;20434;-77
2022/04/17 03:59:16;;;;;;;2.97;0.70;;;13.70;91.90;;;;;;5074552;28;20052;-77
2022/04/17 04:01:46;;;;;;;2.60;0.80;;;13.70;92.30;;;;;;5077959;28;20109;-77
2022/04/17 04:04:18;;;;;;;1.90;0.73;;;13.60;92.70;;;;;;5072187;28;20105;-77
2022/04/17 04:06:48;;;;;;;2.20;0.50;;;13.60;92.90;;;;;;5074665;28;20054;-77
2022/04/17 04:09:16;;;;;;;6.32;0.95;;;13.60;93.00;;;;;;5075593;28;20050;-77
2022/04/17 04:11:45;;;;;;;2.20;0.80;;;13.50;93.30;;;;;;5054689;28;20781;-78
2022/04/17 04:14:14;;;;;;;1.95;0.65;;;13.40;93.70;;;;;;5065241;28;20139;-78
2022/04/17 04:16:42;;;;;;;4.82;0.93;;;13.50;94.00;;;;;;5078886;28;20036;-77
2022/04/17 04:19:13;;;;;;;3.53;0.73;;;13.40;94.10;;;;;;5079501;28;20036;-78
2022/04/17 04:21:47;;;;;;;4.38;1.00;;;13.40;94.20;;;;;;5079354;28;20903;-78
2022/04/17 04:24:23;;;;;;;1.63;0.65;;;13.40;94.10;;;;;;5064220;28;20052;-77
2022/04/17 04:29:38;;;;;;;2.95;0.57;;;13.30;93.60;;;;;;5081431;28;20113;-77
2022/04/17 04:32:07;;;;;;;2.75;0.70;;;13.30;93.80;;;;;;5079847;28;20642;-82
2022/04/17 04:34:36;;;;;;;2.50;0.63;;;13.30;93.40;;;;;;5068988;28;20131;-82
2022/04/17 04:37:04;;;;;;;2.63;0.70;;;13.20;93.40;;;;;;5085132;28;20051;-83
2022/04/17 04:39:34;;;;;;;2.15;1.05;;;13.20;93.40;;;;;;5087491;28;20048;-82
2022/04/17 04:42:02;;;;;;;2.38;0.90;;;13.20;93.30;;;;;;5085731;28;20494;-84
2022/04/17 04:44:30;;;;;;;2.00;0.80;;;13.20;92.00;;;;;;5086154;28;20036;-82
2022/04/17 04:46:59;;;;;;;4.20;0.70;;;13.10;92.30;;;;;;5068987;28;20055;-84
2022/04/17 04:49:30;;;;;;;2.28;0.80;;;13.10;92.30;;;;;;5087287;28;20040;-83
2022/04/17 04:52:00;;;;;;;3.30;0.90;;;13.10;92.20;;;;;;5081221;28;20074;-84
2022/04/17 04:54:29;;;;;;;2.25;0.77;;;13.20;92.30;;;;;;5086035;28;20106;-82
2022/04/17 04:57:00;;;;;;;2.83;0.60;;;13.20;92.30;;;;;;5085876;28;20048;-83
2022/04/17 04:59:29;;;;;;;3.60;0.68;;;13.20;92.30;;;;;;5085557;28;20063;-83
2022/04/17 05:01:57;;;;;;;3.38;0.60;;;13.10;92.20;;;;;;5078019;28;20122;-84
2022/04/17 05:04:27;;;;;;;2.95;0.88;;;13.10;92.40;;;;;;5083374;28;20119;-83
2022/04/17 05:06:58;;;;;;;3.30;1.33;;;13.10;91.80;;;;;;5084814;28;20055;-83
2022/04/17 05:09:28;;;;;;;1.85;0.73;;;13.10;92.10;;;;;;5088222;28;20587;-83
2022/04/17 05:11:56;;;;;;;2.17;0.80;;;13.20;92.30;;;;;;5081645;28;20059;-83
2022/04/17 05:14:29;;;;;;;4.60;0.90;;;13.20;92.30;;;;;;5078171;28;20044;-84
2022/04/17 05:16:57;;;;;;;3.38;0.90;;;13.20;92.20;;;;;;5089072;28;20147;-84
2022/04/17 05:19:27;;;;;;;2.20;0.82;;;13.20;92.50;;;;;;5090740;28;20047;-84
2022/04/17 05:21:59;;;;;;;2.75;1.00;;;13.20;92.40;;;;;;5076199;28;20048;-83
2022/04/17 05:24:27;;;;;;;3.08;0.80;;;13.20;92.40;;;;;;5088693;28;20405;-84
2022/04/17 05:26:55;;;;;;;2.70;0.90;;;13.20;92.90;;;;;;5090124;28;20051;-84
2022/04/17 05:29:25;;;;;;;2.38;1.00;;;13.10;92.80;;;;;;5081526;28;20059;-84
2022/04/17 05:31:53;;;;;;;2.75;0.80;;;13.00;92.60;;;;;;5078013;28;20047;-84
2022/04/17 05:34:21;;;;;;;2.13;0.73;;;13.10;93.00;;;;;;5086016;28;20044;-84
2022/04/17 05:36:50;;;;;;;2.17;1.10;;;13.20;92.90;;;;;;5088755;28;20036;-84
2022/04/17 05:39:18;;;;;;;3.53;1.02;;;13.10;92.80;;;;;;5081200;28;20045;-84
2022/04/17 05:41:47;;;;;;;2.58;0.82;;;13.10;92.70;;;;;;5082860;28;20554;-84
2022/04/17 05:44:15;;;;;;;3.35;1.00;;;13.20;92.10;;;;;;5085635;28;20478;-77
2022/04/17 05:46:51;;;;;;;1.38;0.80;;;13.30;92.10;;;;;;5083712;28;20062;-78
2022/04/17 05:49:21;;;;;;;4.95;0.80;;;13.20;91.80;;;;;;5067211;28;20462;-78
2022/04/17 05:51:49;;;;;;;2.22;0.70;;;13.30;92.10;;;;;;5083691;28;20044;-77
2022/04/17 05:54:17;;;;;;;5.00;1.20;;;13.40;91.50;;;;;;5079295;28;20408;-77
2022/04/17 05:56:45;;;;;;;2.17;0.93;;;13.40;91.50;;;;;;5066996;28;20048;-78
2022/04/17 05:59:14;;;;;;;9.27;2.22;;;13.40;91.30;;;;;;5097259;28;20074;-78
2022/04/17 06:01:42;;;;;;;4.57;1.30;;;13.40;91.50;;;;;;5084457;28;20119;-77
2022/04/17 06:04:12;;;;;;;4.78;1.00;;;13.50;91.40;;;;;;5082608;28;20054;-78
2022/04/17 06:06:40;;;;;;;5.70;1.08;;;13.50;89.90;;;;;;5083720;28;20059;-78
2022/04/17 06:09:08;;;;;;;4.22;1.13;;;13.50;89.50;;;;;;5079490;28;20121;-78
2022/04/17 06:11:37;;;;;;;3.92;0.90;;;13.50;89.50;;;;;;5082180;28;20052;-79
2022/04/17 06:14:05;;;;;;;2.50;1.08;;;13.50;88.90;;;;;;5080331;28;20048;-78
2022/04/17 06:16:34;;;;;;;3.78;0.80;;;13.60;88.90;;;;;;5084850;28;20414;-83
2022/04/17 06:19:02;;;;;;;2.38;0.80;;;13.50;88.90;;;;;;5081149;28;20130;-83
2022/04/17 06:21:32;;;;;;;2.45;0.70;;;13.60;88.40;;;;;;5068945;28;20139;-77
2022/04/17 06:24:00;;;;;;;2.30;1.10;;;13.60;88.40;;;;;;5079769;28;20048;-83
2022/04/17 06:26:28;;;;;;;5.78;1.02;;;13.70;87.80;;;;;;5077565;28;20097;-84
2022/04/17 06:28:56;;;;;;;3.75;1.05;;;13.80;87.90;;;;;;5088162;28;20067;-84
2022/04/17 06:31:24;;;;;;;3.92;1.00;;;13.70;87.60;;;;;;5087022;28;20036;-83
2022/04/17 06:33:52;;;;;;;2.40;0.82;;;13.80;87.70;;;;;;5089058;28;20047;-83
2022/04/17 06:36:25;;;;;;;2.05;0.73;;;13.80;87.20;;;;;;5087259;28;20517;-83
2022/04/17 06:38:55;;;;;;;2.90;0.70;;;13.80;87.10;;;;;;5087522;28;20055;-82
2022/04/17 06:41:23;;;;;;;2.85;0.95;;;13.80;86.50;;;;;;5082115;28;20048;-84
2022/04/17 06:43:51;;;;;;;1.92;0.70;;;13.90;86.20;;;;;;5082802;28;20052;-82
2022/04/17 06:46:20;;;;;;;5.63;1.13;;;13.90;85.50;;;;;;5070280;28;20476;-83
2022/04/17 06:48:48;;;;;;;3.67;0.90;;;13.90;85.80;;;;;;5070465;28;20899;-82
2022/04/17 06:51:22;;;;;;;3.30;1.00;;;13.90;84.70;;;;;;5064039;28;20055;-83
2022/04/17 06:53:50;;;;;;;1.42;0.80;;;14.00;85.30;;;;;;5087330;28;20044;-83
2022/04/17 06:56:20;;;;;;;2.55;0.75;;;14.00;85.70;;;;;;5086663;28;20044;-82
2022/04/17 06:58:49;;;;;;;1.65;0.70;;;14.00;84.80;;;;;;5087441;28;20060;-83
2022/04/17 07:01:17;;;;;;;1.30;0.85;;;14.00;84.80;;;;;;5067116;28;20049;-83
2022/04/17 07:03:46;;;;;;;2.42;0.82;;;14.00;85.20;;;;;;5083050;28;20044;-84
2022/04/17 07:06:19;;;;;;;2.15;0.93;;;14.00;85.00;;;;;;5062919;28;20112;-83
2022/04/17 07:08:47;;;;;;;2.85;1.00;;;14.00;85.50;;;;;;5079353;28;20082;-83
2022/04/17 07:11:19;;;;;;;5.10;1.00;;;14.20;85.40;;;;;;5094973;28;20532;-84
2022/04/17 07:13:49;;;;;;;4.93;0.80;;;14.10;84.50;;;;;;5078389;28;20135;-83
2022/04/17 07:16:17;;;;;;;2.75;0.88;;;14.20;84.70;;;;;;5098746;28;20097;-83
2022/04/17 07:18:46;;;;;;;3.15;0.80;;;14.20;84.70;;;;;;5086904;28;20074;-84
2022/04/17 07:21:15;;;;;;;2.35;0.90;;;14.20;84.70;;;;;;5085906;28;20051;-82
2022/04/17 07:23:45;;;;;;;3.67;1.10;;;14.10;84.40;;;;;;5085421;28;20036;-82
2022/04/17 07:26:14;;;;;;;3.13;0.75;;;14.20;84.40;;;;;;5084021;28;20052;-85
2022/04/17 07:28:42;;;;;;;3.13;0.80;;;14.20;84.10;;;;;;5079155;28;21244;-82
2022/04/17 07:31:11;;;;;;;2.60;0.90;;;14.30;84.80;;;;;;5080704;28;20032;-83
2022/04/17 07:33:39;;;;;;;1.73;0.85;;;14.30;84.10;;;;;;5077833;28;20055;-84
2022/04/17 07:36:09;;;;;;;1.67;0.80;;;14.30;84.60;;;;;;5086569;28;20054;-84
2022/04/17 07:38:37;;;;;;;5.13;1.00;;;14.40;84.30;;;;;;5086703;28;20071;-84
2022/04/17 07:41:05;;;;;;;4.43;1.30;;;14.40;84.00;;;;;;5080116;28;20063;-83
2022/04/17 07:43:33;;;;;;;1.73;1.02;;;14.40;83.70;;;;;;5086308;28;20086;-83
2022/04/17 07:46:04;;;;;;;3.05;0.95;;;14.40;83.90;;;;;;5088579;28;20122;-83
2022/04/17 07:48:34;;;;;;;1.73;0.93;;;14.50;84.50;;;;;;5069153;28;20451;-83
2022/04/17 07:51:02;;;;;;;2.58;0.82;;;14.50;84.40;;;;;;5056254;28;20092;-82
2022/04/17 07:53:31;;;;;;;1.55;0.80;;;14.60;84.30;;;;;;5079016;28;20130;-83
2022/04/17 07:55:59;;;;;;;1.75;0.80;;;14.70;84.00;;;;;;5061259;28;20048;-83
2022/04/17 07:58:35;;;;;;;2.20;0.90;;;14.70;84.30;;;;;;5084205;28;20567;-83
2022/04/17 08:01:14;;;;;;;2.72;0.98;;;14.70;83.80;;;;;;5087782;28;20042;-84
2022/04/17 08:06:15;;;;;;;1.15;0.68;;;14.70;83.20;;;;;;5086267;28;20139;-84
2022/04/17 08:08:44;;;;;;;2.03;0.95;;;14.70;83.60;;;;;;5085790;28;20051;-83
2022/04/17 08:11:13;;;;;;;3.05;0.88;;;14.70;83.50;;;;;;5087759;28;20044;-83
2022/04/17 08:13:42;;;;;;;3.03;0.88;;;14.80;83.50;;;;;;5085485;28;20050;-83
2022/04/17 08:16:10;;;;;;;2.25;0.77;;;14.80;83.60;;;;;;5079637;28;20040;-81
2022/04/17 08:18:43;;;;;;;0.80;0.60;;;14.90;84.10;;;;;;5086939;28;20044;-83
2022/04/17 08:21:11;;;;;;;2.35;0.90;;;15.00;83.80;;;;;;5062170;28;20147;-84
2022/04/17 08:23:39;;;;;;;2.45;1.00;;;15.00;83.60;;;;;;5067658;28;20052;-82
2022/04/17 08:26:07;;;;;;;2.08;0.68;;;15.10;84.30;;;;;;5063151;28;20040;-87
2022/04/17 08:28:36;;;;;;;2.88;1.08;;;15.20;83.50;;;;;;5052453;28;20048;-85
2022/04/17 08:31:04;;;;;;;4.13;0.90;;;15.20;83.30;;;;;;5085958;28;20578;-84
2022/04/17 08:33:33;;;;;;;3.45;0.70;;;15.20;82.90;;;;;;5069729;28;20055;-87
2022/04/17 08:36:04;;;;;;;3.95;0.82;;;15.30;83.40;;;;;;5088266;28;20093;-88
2022/04/17 08:38:32;;;;;;;3.25;0.80;;;15.30;83.10;;;;;;5090446;28;20090;-83
2022/04/17 08:41:03;;;;;;;6.35;0.93;;;15.30;82.80;;;;;;5102780;28;20044;-79
2022/04/17 08:43:32;;;;;;;2.70;0.90;;;15.30;82.60;;;;;;5079915;28;20712;-80
2022/04/17 08:46:01;;;;;;;1.75;0.75;;;15.50;83.50;;;;;;5084793;28;20048;-79
2022/04/17 08:48:30;;;;;;;1.98;0.90;;;15.60;83.80;;;;;;5084610;28;20445;-81
2022/04/17 08:51:02;;;;;;;2.03;0.77;;;15.70;83.70;;;;;;5078726;28;20048;-80
2022/04/17 08:53:34;;;;;;;2.20;0.70;;;15.80;84.50;;;;;;5085831;28;20525;-81
2022/04/17 08:56:03;;;;;;;1.73;0.60;;;15.80;83.50;;;;;;5080639;28;20044;-80
2022/04/17 08:58:31;;;;;;;1.45;0.80;;;15.80;83.30;;;;;;5075629;28;20244;-80
2022/04/17 09:00:59;;;;;;;6.13;1.02;;;15.80;83.30;;;;;;5059357;28;20109;-85
2022/04/17 09:03:28;;;;;;;3.83;1.77;;;15.80;83.60;;;;;;5081114;28;20121;-84
2022/04/17 09:05:56;;;;;;;2.90;1.20;;;15.90;82.80;;;;;;5088496;28;20569;-85
2022/04/17 09:08:24;;;;;;;17.30;7.93;;;15.90;82.90;;;;;;5088007;28;20130;-84
2022/04/17 09:10:54;;;;;;;16.33;8.90;;;16.00;83.80;;;;;;5087172;28;20073;-84
2022/04/17 09:13:29;;;;;;;5.28;1.45;;;16.00;83.60;;;;;;5080920;28;20040;-85
2022/04/17 09:15:57;;;;;;;4.13;1.10;;;15.90;83.10;;;;;;5069580;28;20052;-84
2022/04/17 09:18:29;;;;;;;2.65;1.45;;;15.90;83.50;;;;;;5066685;28;20063;-85
2022/04/17 09:20:58;;;;;;;3.13;1.70;;;16.00;83.70;;;;;;5084699;28;20044;-85
2022/04/17 09:23:33;;;;;;;7.57;1.50;;;16.10;83.90;;;;;;5087595;28;20040;-81
2022/04/17 09:26:04;;;;;;;2.60;1.00;;;16.00;83.60;;;;;;5080727;28;20060;-81
2022/04/17 09:28:33;;;;;;;3.45;1.00;;;16.10;83.90;;;;;;5067598;28;20655;-80
2022/04/17 09:31:08;;;;;;;4.93;1.23;;;16.20;83.80;;;;;;5074157;28;20134;-82
2022/04/17 09:33:37;;;;;;;1.73;0.95;;;16.30;83.20;;;;;;5076154;28;20048;-82
2022/04/17 09:36:06;;;;;;;3.03;1.02;;;16.30;83.50;;;;;;5070372;28;20052;-79
2022/04/17 09:38:40;;;;;;;3.70;1.38;;;16.30;83.60;;;;;;5085256;28;20040;-79
2022/04/17 09:41:13;;;;;;;2.75;1.35;;;16.40;83.40;;;;;;5085235;28;20044;-80
2022/04/17 09:43:47;;;;;;;3.53;1.10;;;16.50;83.30;;;;;;5073303;28;20040;-80
2022/04/17 09:46:16;;;;;;;1.55;0.80;;;16.70;83.20;;;;;;5068846;28;20566;-79
2022/04/17 09:48:44;;;;;;;3.20;1.17;;;16.70;83.60;;;;;;5083962;28;20561;-80
2022/04/17 09:51:22;;;;;;;1.40;0.88;;;16.80;82.70;;;;;;5068989;28;20139;-78
2022/04/17 09:53:59;;;;;;;6.53;1.02;;;16.80;83.10;;;;;;5084337;28;20067;-79
2022/04/17 09:56:33;;;;;;;2.38;0.70;;;16.80;82.10;;;;;;5087510;28;20644;-81
2022/04/17 09:59:14;;;;;;;4.38;1.02;;;16.90;82.40;;;;;;5084487;28;20062;-81
2022/04/17 10:01:44;;;;;;;3.25;0.70;;;17.00;82.40;;;;;;5083884;28;20100;-86
2022/04/17 10:04:12;;;;;;;1.67;1.10;;;17.00;82.20;;;;;;5087875;28;20052;-84
2022/04/17 10:06:40;;;;;;;2.15;1.13;;;17.00;81.90;;;;;;5081759;28;20036;-83
2022/04/17 10:09:08;;;;;;;2.17;0.93;;;17.10;82.20;;;;;;5070028;28;20055;-82
2022/04/17 10:11:40;;;;;;;2.90;1.40;;;17.10;81.30;;;;;;5086696;28;20040;-81
2022/04/17 10:14:08;;;;;;;2.03;0.90;;;17.10;81.50;;;;;;5083847;28;20052;-83
2022/04/17 10:16:40;;;;;;;1.83;0.90;;;17.20;81.30;;;;;;5089026;28;20040;-86
2022/04/17 10:19:11;;;;;;;3.88;1.20;;;17.20;80.50;;;;;;5087926;28;20048;-85
2022/04/17 10:21:40;;;;;;;4.30;1.77;;;17.20;81.00;;;;;;5087975;28;20048;-84
2022/04/17 10:24:12;;;;;;;3.88;1.85;;;17.30;80.50;;;;;;5079401;28;20052;-86
2022/04/17 10:26:45;;;;;;;4.20;1.50;;;17.40;80.10;;;;;;5081094;28;20123;-84
2022/04/17 10:29:21;;;;;;;1.70;0.95;;;17.30;80.50;;;;;;5089529;28;20064;-82
2022/04/17 10:32:08;;;;;;;3.97;1.10;;;17.40;80.30;;;;;;5087741;28;20174;-81
2022/04/17 10:34:50;;;;;;;;;;;17.50;79.20;;;;;;5087891;28;20139;-80
2022/04/17 10:37:57;;;;;;;4.78;1.70;;;17.50;79.30;;;;;;5080338;28;20019;-83
2022/04/17 10:40:25;;;;;;;1.38;0.90;;;17.50;78.50;;;;;;5074007;28;20052;-83
2022/04/17 10:42:59;;;;;;;3.67;1.27;;;17.60;78.40;;;;;;5079051;28;20040;-82
2022/04/17 10:45:31;;;;;;;6.28;1.08;;;17.60;77.80;;;;;;5088021;28;20374;-82
2022/04/17 10:48:09;;;;;;;2.53;0.85;;;17.50;77.70;;;;;;5082657;28;20072;-80
2022/04/17 10:50:43;;;;;;;2.83;1.10;;;17.50;76.90;;;;;;5087168;28;20158;-83
2022/04/17 10:53:24;;;;;;;3.50;1.73;;;17.60;77.40;;;;;;5088701;28;20044;-84
2022/04/17 10:56:02;;;;;;;3.05;2.13;;;17.90;76.10;;;;;;5075171;28;20054;-82
2022/04/17 10:58:45;;;;;;;3.30;1.40;;;17.90;76.00;;;;;;5079625;28;20565;-82
2022/04/17 11:01:13;;;;;;;3.42;1.38;;;17.90;77.00;;;;;;5083749;28;20097;-81
2022/04/17 11:03:52;;;;;;;2.08;0.80;;;18.10;76.70;;;;;;5088135;28;20112;-82
2022/04/17 11:06:33;;;;;;;3.72;1.38;;;18.20;75.40;;;;;;5083159;28;20703;-83
2022/04/17 11:09:08;;;;;;;3.05;0.70;;;18.20;75.10;;;;;;5070390;28;20049;-82
2022/04/17 11:11:37;;;;;;;3.47;0.98;;;18.30;74.50;;;;;;5087066;28;20048;-81
2022/04/17 11:14:09;;;;;;;3.53;0.93;;;18.20;74.50;;;;;;5078246;28;20082;-80
2022/04/17 11:16:48;;;;;;;1.98;0.90;;;18.30;74.60;;;;;;5081791;28;20055;-81
2022/04/17 11:19:17;;;;;;;2.03;0.77;;;18.50;75.30;;;;;;5086324;28;20044;-83
2022/04/17 11:21:46;;;;;;;7.10;1.02;;;18.70;74.50;;;;;;5078564;28;20032;-82
2022/04/17 11:24:14;;;;;;;2.58;1.20;;;18.70;75.00;;;;;;5081319;28;20131;-82
2022/04/17 11:27:07;;;;;;;1.13;0.60;;;18.80;73.50;;;;;;5087491;28;20044;-82
2022/04/17 11:29:38;;;;;;;2.28;0.70;;;18.90;74.50;;;;;;5079191;28;20047;-78
2022/04/17 11:32:43;;;;;;;2.22;0.90;;;18.80;74.20;;;;;;5075936;28;20048;-79
2022/04/17 11:35:12;;;;;;;0.82;0.57;;;19.20;74.00;;;;;;5080106;28;20358;-77
2022/04/17 11:37:48;;;;;;;3.45;1.30;;;19.10;72.50;;;;;;5080715;28;20079;-78
2022/04/17 11:40:16;;;;;;;3.78;0.95;;;19.10;73.00;;;;;;5081868;28;20048;-78
2022/04/17 11:42:46;;;;;;;2.20;0.70;;;19.30;73.40;;;;;;5081206;28;20124;-78
2022/04/17 11:45:17;;;;;;;1.77;0.95;;;19.30;71.50;;;;;;5078330;28;20072;-77
2022/04/17 11:47:46;;;;;;;1.58;1.13;;;19.20;71.30;;;;;;5084014;28;20505;-83
2022/04/17 11:50:26;;;;;;;2.35;0.80;;;19.10;70.20;;;;;;5085126;28;20055;-82
2022/04/17 11:52:56;;;;;;;1.48;0.82;;;19.10;68.40;;;;;;5084350;28;20517;-83
2022/04/17 11:55:25;;;;;;;3.42;1.38;;;19.30;68.50;;;;;;5068540;28;20036;-82
2022/04/17 11:57:53;;;;;;;3.92;1.58;;;19.50;69.20;;;;;;5081880;28;20076;-82
2022/04/17 12:00:24;;;;;;;2.15;0.80;;;19.70;69.20;;;;;;5083504;28;20057;-84
2022/04/17 12:02:56;;;;;;;5.28;1.27;;;19.60;68.60;;;;;;5075787;28;21136;-77
2022/04/17 12:05:25;;;;;;;3.53;1.05;;;19.50;68.50;;;;;;5062740;28;20106;-83
2022/04/17 12:08:06;;;;;;;3.22;0.90;;;19.60;68.10;;;;;;5075785;28;20104;-83
2022/04/17 12:10:35;;;;;;;2.13;0.77;;;19.80;68.20;;;;;;5080284;28;20052;-83
2022/04/17 12:13:17;;;;;;;5.50;0.95;;;19.90;66.50;;;;;;5087556;28;20413;-78
2022/04/17 12:15:57;;;;;;;1.90;0.65;;;19.70;67.60;;;;;;5077756;28;20044;-78
2022/04/17 12:18:25;;;;;;;2.17;0.80;;;19.70;66.90;;;;;;5077689;28;20097;-78
2022/04/17 12:21:02;;;;;;;3.85;0.90;;;19.90;66.80;;;;;;5085745;28;20040;-78
2022/04/17 12:23:32;;;;;;;5.07;0.98;;;19.90;66.20;;;;;;5084727;28;20066;-77
2022/04/17 12:26:03;;;;;;;2.75;0.88;;;19.90;66.90;;;;;;5086082;28;20056;-78
2022/04/17 12:28:31;;;;;;;1.80;0.60;;;19.90;67.30;;;;;;5079650;28;20044;-78
2022/04/17 12:31:00;;;;;;;3.55;0.82;;;19.70;65.50;;;;;;5085605;28;20296;-77
2022/04/17 12:33:29;;;;;;;2.63;0.80;;;19.90;66.60;;;;;;5098250;28;20505;-78
2022/04/17 12:36:07;;;;;;;1.40;0.55;;;20.10;65.40;;;;;;5069306;28;20044;-77
2022/04/17 12:38:36;;;;;;;2.65;1.10;;;20.20;65.40;;;;;;5078193;28;20046;-78
2022/04/17 12:41:18;;;;;;;2.55;1.10;;;20.10;65.90;;;;;;5085405;28;20040;-78
2022/04/17 12:43:49;;;;;;;2.47;0.90;;;19.90;65.80;;;;;;5081362;28;20047;-78
2022/04/17 12:46:29;;;;;;;2.17;0.75;;;20.00;65.60;;;;;;5084668;28;20055;-77
2022/04/17 12:49:09;;;;;;;1.35;0.60;;;19.90;66.20;;;;;;5083124;28;20044;-78
2022/04/17 12:51:39;;;;;;;1.80;0.82;;;19.80;65.50;;;;;;5085015;28;20094;-78
2022/04/17 12:54:09;;;;;;;2.70;0.90;;;19.80;64.70;;;;;;5085646;28;20043;-78
2022/04/17 12:56:38;;;;;;;2.97;0.57;;;19.70;65.40;;;;;;5086610;28;20137;-78
2022/04/17 12:59:08;;;;;;;2.30;0.57;;;19.80;65.00;;;;;;5068673;28;20052;-78
2022/04/17 13:01:48;;;;;;;1.27;0.60;;;19.80;64.90;;;;;;5086688;28;20053;-79
2022/04/17 13:04:21;;;;;;;2.65;0.50;;;19.80;64.80;;;;;;5083170;28;20048;-78
2022/04/17 13:07:04;;;;;;;2.00;0.60;;;19.80;64.80;;;;;;5061439;28;20468;-78
2022/04/17 13:09:32;;;;;;;1.75;0.70;;;19.90;64.30;;;;;;5086383;28;20072;-77
2022/04/17 13:12:00;;;;;;;2.20;0.73;;;19.90;64.00;;;;;;5066534;28;20600;-77
2022/04/17 13:14:28;;;;;;;2.08;0.70;;;19.90;63.60;;;;;;5068348;28;20172;-77
2022/04/17 13:17:00;;;;;;;2.90;0.80;;;20.00;64.60;;;;;;5079585;28;20037;-78
2022/04/17 13:19:30;;;;;;;2.45;0.70;;;20.20;64.10;;;;;;5085610;28;20113;-77
2022/04/17 13:21:59;;;;;;;2.78;0.88;;;20.00;63.80;;;;;;5084185;28;20046;-78